Time;durP1;ratioP1;P1;durP2;ratioP2;P2;SDS_P1;SDS_P2;PMS_P1;PMS_P2;Temp;Humidity;BMP_temperature;BMP_pressure;BME280_temperature;BME280_humidity;BME280_pressure;Samples;Min_cycle;Max_cycle;Signal;HPM_P1;HPM_P2
2021/04/29 00:02:08;;;;;;;3.00;2.20;;;21.70;42.60;;;;;;4980309;28;20224;-83
2021/04/29 00:04:36;;;;;;;3.60;1.97;;;21.70;42.60;;;;;;4981800;28;20688;-83
2021/04/29 00:07:02;;;;;;;2.93;2.60;;;21.60;42.60;;;;;;4998270;28;20220;-84
2021/04/29 00:09:31;;;;;;;3.50;2.03;;;21.60;42.60;;;;;;4984889;28;20227;-83
2021/04/29 00:11:57;;;;;;;2.37;2.17;;;21.70;42.60;;;;;;4977837;28;20224;-83
2021/04/29 00:14:24;;;;;;;2.60;2.10;;;21.60;42.60;;;;;;4980536;28;20224;-82
2021/04/29 00:16:50;;;;;;;3.73;2.10;;;21.60;42.60;;;;;;4976054;28;20246;-82
2021/04/29 00:19:17;;;;;;;2.80;2.50;;;21.60;42.80;;;;;;4982686;28;20648;-83
2021/04/29 00:21:43;;;;;;;2.47;2.07;;;21.60;42.80;;;;;;4981897;28;20685;-83
2021/04/29 00:24:10;;;;;;;3.83;1.97;;;21.50;42.80;;;;;;4974529;28;20227;-82
2021/04/29 00:26:37;;;;;;;2.50;1.83;;;21.50;42.70;;;;;;4982926;28;20227;-82
2021/04/29 00:29:03;;;;;;;2.57;1.80;;;21.50;42.80;;;;;;4980238;28;20224;-83
2021/04/29 00:31:30;;;;;;;3.10;2.30;;;21.50;42.80;;;;;;4980614;28;20234;-82
2021/04/29 00:33:58;;;;;;;2.20;2.00;;;21.50;42.80;;;;;;4981720;28;20735;-82
2021/04/29 00:36:26;;;;;;;3.10;2.30;;;21.50;42.80;;;;;;4976662;28;20422;-81
2021/04/29 00:38:52;;;;;;;2.53;2.33;;;21.50;42.80;;;;;;4981487;28;20304;-82
2021/04/29 00:41:19;;;;;;;2.30;2.10;;;21.50;42.90;;;;;;4978160;28;20466;-82
2021/04/29 00:43:45;;;;;;;3.20;2.40;;;21.40;42.80;;;;;;4980304;28;20216;-83
2021/04/29 00:46:14;;;;;;;2.10;1.90;;;21.40;42.80;;;;;;4979073;28;20220;-83
2021/04/29 00:48:42;;;;;;;2.00;1.80;;;21.40;42.80;;;;;;4978033;28;20312;-82
2021/04/29 00:51:08;;;;;;;2.83;2.27;;;21.40;42.90;;;;;;4982310;28;20270;-82
2021/04/29 00:53:39;;;;;;;2.67;1.97;;;21.40;43.00;;;;;;4983264;28;20232;-80
2021/04/29 00:56:08;;;;;;;3.07;2.13;;;21.30;43.00;;;;;;4978887;28;20276;-83
2021/04/29 00:58:35;;;;;;;2.40;2.17;;;21.40;43.10;;;;;;4978657;28;20228;-81
2021/04/29 01:01:03;;;;;;;2.20;2.00;;;21.40;43.10;;;;;;4978286;28;20259;-82
2021/04/29 01:03:37;;;;;;;2.17;1.93;;;21.30;43.10;;;;;;4982853;28;20221;-82
2021/04/29 01:06:13;;;;;;;2.33;1.93;;;21.30;43.00;;;;;;4979851;28;20228;-82
2021/04/29 01:08:49;;;;;;;2.13;1.93;;;21.30;43.10;;;;;;4981450;28;20224;-82
2021/04/29 01:11:20;;;;;;;2.40;2.20;;;21.30;43.10;;;;;;4979531;28;20400;-82
2021/04/29 01:13:51;;;;;;;2.30;2.10;;;21.30;43.10;;;;;;4975593;28;20227;-82
2021/04/29 01:16:20;;;;;;;2.30;2.10;;;21.30;43.20;;;;;;4978685;28;20228;-81
2021/04/29 01:18:48;;;;;;;2.10;1.80;;;21.30;43.20;;;;;;4980472;28;20700;-82
2021/04/29 01:21:16;;;;;;;2.43;2.17;;;21.30;43.30;;;;;;4972771;28;20236;-82
2021/04/29 01:23:42;;;;;;;2.87;2.10;;;21.30;43.20;;;;;;4982266;28;20267;-82
2021/04/29 01:26:21;;;;;;;2.33;2.13;;;21.30;43.30;;;;;;4975908;28;20224;-83
2021/04/29 01:28:49;;;;;;;3.10;2.30;;;21.20;43.20;;;;;;4966620;28;20232;-82
2021/04/29 01:31:19;;;;;;;2.60;2.10;;;21.20;43.30;;;;;;4979762;28;20229;-82
2021/04/29 01:33:46;;;;;;;2.10;1.90;;;21.20;43.40;;;;;;4982767;28;20246;-82
2021/04/29 01:36:13;;;;;;;2.40;2.10;;;21.20;43.40;;;;;;4977846;28;20649;-82
2021/04/29 01:38:39;;;;;;;2.53;2.33;;;21.20;43.30;;;;;;4985531;28;20220;-82
2021/04/29 01:41:06;;;;;;;2.37;2.00;;;21.20;43.30;;;;;;4985128;28;20225;-82
2021/04/29 01:43:33;;;;;;;4.43;1.87;;;21.20;43.30;;;;;;4998614;28;20224;-82
2021/04/29 01:46:01;;;;;;;2.50;2.23;;;21.20;43.40;;;;;;4985073;28;20704;-82
2021/04/29 01:48:29;;;;;;;2.73;2.40;;;21.20;43.40;;;;;;4980484;28;20255;-82
2021/04/29 01:50:59;;;;;;;2.30;2.10;;;21.20;43.30;;;;;;4986353;28;20227;-82
2021/04/29 01:53:26;;;;;;;2.03;1.70;;;21.10;43.30;;;;;;4984186;28;20277;-84
2021/04/29 01:55:54;;;;;;;2.77;2.23;;;21.10;43.30;;;;;;4986919;28;20224;-83
2021/04/29 01:58:22;;;;;;;2.83;2.20;;;21.10;43.30;;;;;;4987034;28;20224;-82
2021/04/29 02:00:49;;;;;;;3.10;2.40;;;21.10;43.30;;;;;;4987536;28;20250;-82
2021/04/29 02:03:16;;;;;;;3.03;2.67;;;21.10;43.30;;;;;;4987577;28;20227;-83
2021/04/29 02:05:43;;;;;;;2.47;2.20;;;21.10;43.20;;;;;;4988410;28;20216;-82
2021/04/29 02:08:09;;;;;;;2.33;2.13;;;21.00;43.20;;;;;;4987831;28;20700;-82
2021/04/29 02:10:35;;;;;;;2.90;2.50;;;21.10;43.30;;;;;;4987076;28;20349;-83
2021/04/29 02:13:03;;;;;;;2.57;2.37;;;21.10;43.30;;;;;;4984966;28;20224;-83
2021/04/29 02:15:32;;;;;;;2.70;2.50;;;21.10;43.30;;;;;;4985865;28;20731;-82
2021/04/29 02:18:07;;;;;;;3.90;2.33;;;21.00;43.30;;;;;;4985459;28;20236;-81
2021/04/29 02:20:37;;;;;;;2.60;2.40;;;21.00;43.30;;;;;;4987311;28;20480;-82
2021/04/29 02:23:09;;;;;;;3.97;2.43;;;21.00;43.30;;;;;;4982691;28;20752;-81
2021/04/29 02:25:36;;;;;;;3.93;2.70;;;21.00;43.30;;;;;;4986374;28;20228;-82
2021/04/29 02:28:03;;;;;;;4.87;2.53;;;21.00;43.30;;;;;;4987911;28;20312;-82
2021/04/29 02:30:29;;;;;;;2.70;2.50;;;21.00;43.20;;;;;;4987137;28;20231;-82
2021/04/29 02:32:56;;;;;;;3.43;2.60;;;21.00;43.20;;;;;;4985148;28;20562;-82
2021/04/29 02:35:22;;;;;;;4.30;2.50;;;21.00;43.40;;;;;;4985438;28;20764;-82
2021/04/29 02:37:52;;;;;;;3.57;2.50;;;21.00;43.30;;;;;;4987836;28;20235;-82
2021/04/29 02:40:20;;;;;;;3.50;2.43;;;21.00;43.30;;;;;;4985446;28;20236;-82
2021/04/29 02:43:05;;;;;;;3.17;2.37;;;20.90;43.10;;;;;;4986409;28;20235;-82
2021/04/29 02:45:31;;;;;;;3.00;2.50;;;21.00;43.30;;;;;;4985880;28;20228;-82
2021/04/29 02:47:58;;;;;;;3.10;2.40;;;21.00;43.40;;;;;;5001409;28;20220;-82
2021/04/29 02:50:25;;;;;;;2.80;2.33;;;20.90;43.30;;;;;;4986686;28;20224;-81
2021/04/29 02:52:52;;;;;;;3.57;2.77;;;20.90;43.30;;;;;;4987723;28;20220;-81
2021/04/29 02:55:23;;;;;;;3.57;2.67;;;20.90;43.30;;;;;;4985771;28;20707;-81
2021/04/29 02:57:50;;;;;;;3.10;2.30;;;20.90;43.20;;;;;;4986755;28;20608;-81
2021/04/29 03:00:18;;;;;;;3.70;2.70;;;20.80;43.30;;;;;;4986572;28;20220;-81
2021/04/29 03:02:45;;;;;;;4.20;2.67;;;20.80;43.30;;;;;;4985692;28;20232;-82
2021/04/29 03:05:13;;;;;;;3.43;2.80;;;20.80;43.20;;;;;;4983909;28;20842;-81
2021/04/29 03:07:41;;;;;;;3.43;2.67;;;20.90;43.30;;;;;;4984059;28;20263;-81
2021/04/29 03:10:09;;;;;;;2.60;2.40;;;20.80;43.30;;;;;;4987110;28;20715;-82
2021/04/29 03:12:36;;;;;;;2.87;2.60;;;20.80;43.30;;;;;;4984881;28;20228;-83
2021/04/29 03:15:03;;;;;;;3.33;3.03;;;20.80;43.30;;;;;;4986046;28;20250;-81
2021/04/29 03:17:29;;;;;;;2.70;2.20;;;20.80;43.30;;;;;;5000872;28;20235;-81
2021/04/29 03:19:56;;;;;;;3.63;2.70;;;20.80;43.30;;;;;;4977028;28;20255;-81
2021/04/29 03:22:22;;;;;;;5.47;2.53;;;20.80;43.30;;;;;;4984364;28;20224;-82
2021/04/29 03:24:49;;;;;;;2.70;2.50;;;20.80;43.30;;;;;;4985132;28;20484;-82
2021/04/29 03:27:21;;;;;;;3.47;2.37;;;20.80;43.30;;;;;;4985824;28;20221;-81
2021/04/29 03:29:47;;;;;;;2.73;2.40;;;20.70;43.20;;;;;;4986451;28;20529;-81
2021/04/29 03:32:14;;;;;;;3.67;2.80;;;20.80;43.30;;;;;;4999800;28;20696;-82
2021/04/29 03:34:40;;;;;;;3.03;2.63;;;20.80;43.40;;;;;;4985652;28;20228;-81
2021/04/29 03:37:07;;;;;;;3.10;2.70;;;20.80;43.50;;;;;;4985063;28;20227;-82
2021/04/29 03:39:36;;;;;;;4.07;2.63;;;20.80;43.50;;;;;;4985915;28;20220;-81
2021/04/29 03:42:06;;;;;;;2.73;2.37;;;20.80;43.40;;;;;;4984130;28;20239;-81
2021/04/29 03:44:34;;;;;;;2.90;2.70;;;20.80;43.40;;;;;;4983015;28;20235;-81
2021/04/29 03:47:01;;;;;;;2.87;2.60;;;20.70;43.40;;;;;;4999612;28;20224;-81
2021/04/29 03:49:27;;;;;;;2.50;2.30;;;20.70;43.40;;;;;;4984825;28;20228;-82
2021/04/29 03:51:56;;;;;;;3.23;2.53;;;20.70;43.50;;;;;;4985863;28;20284;-81
2021/04/29 03:54:23;;;;;;;2.90;2.47;;;20.70;43.50;;;;;;4985189;28;20235;-81
2021/04/29 03:56:51;;;;;;;2.40;2.20;;;20.70;43.40;;;;;;4985806;28;20243;-81
2021/04/29 03:59:18;;;;;;;3.07;2.40;;;20.70;43.50;;;;;;5000179;28;20231;-82
2021/04/29 04:01:44;;;;;;;2.77;2.23;;;20.60;43.50;;;;;;4980191;28;20774;-82
2021/04/29 04:04:10;;;;;;;3.13;2.30;;;20.60;43.40;;;;;;4984278;28;20219;-82
2021/04/29 04:06:37;;;;;;;2.57;2.30;;;20.70;43.50;;;;;;4986079;28;20250;-81
2021/04/29 04:09:04;;;;;;;3.20;2.30;;;20.60;43.50;;;;;;4982821;28;20220;-82
2021/04/29 04:11:30;;;;;;;2.63;2.40;;;20.60;43.40;;;;;;4986705;28;20232;-82
2021/04/29 04:14:07;;;;;;;3.60;2.40;;;20.60;43.50;;;;;;4984907;28;20239;-83
2021/04/29 04:16:33;;;;;;;3.10;2.27;;;20.60;43.50;;;;;;4987326;28;20239;-82
2021/04/29 04:19:00;;;;;;;2.50;2.30;;;20.60;43.50;;;;;;4983481;28;20694;-82
2021/04/29 04:21:28;;;;;;;2.50;2.30;;;20.60;43.50;;;;;;4984858;28;20240;-83
2021/04/29 04:23:55;;;;;;;3.20;2.80;;;20.60;43.60;;;;;;4985257;28;20231;-82
2021/04/29 04:26:21;;;;;;;2.60;2.33;;;20.50;43.40;;;;;;4988932;28;20228;-82
2021/04/29 04:28:48;;;;;;;3.27;2.30;;;20.60;43.40;;;;;;4985056;28;20493;-82
2021/04/29 04:31:14;;;;;;;2.40;2.20;;;20.60;43.50;;;;;;4985291;28;20227;-82
2021/04/29 04:33:41;;;;;;;2.90;2.70;;;20.60;43.40;;;;;;4984416;28;20232;-81
2021/04/29 04:36:07;;;;;;;3.60;2.73;;;20.50;43.50;;;;;;4985967;28;20243;-81
2021/04/29 04:38:33;;;;;;;2.93;2.53;;;20.60;43.50;;;;;;4984535;28;20228;-81
2021/04/29 04:41:00;;;;;;;3.33;2.67;;;20.50;43.50;;;;;;4985470;28;20235;-80
2021/04/29 04:43:26;;;;;;;4.90;2.63;;;20.50;43.40;;;;;;4984823;28;20224;-81
2021/04/29 04:45:52;;;;;;;2.97;2.43;;;20.50;43.50;;;;;;4982879;28;20596;-81
2021/04/29 04:48:19;;;;;;;3.03;2.70;;;20.60;43.50;;;;;;4984204;28;20239;-82
2021/04/29 04:50:48;;;;;;;2.90;2.30;;;20.50;43.50;;;;;;4984998;28;20224;-82
2021/04/29 04:53:14;;;;;;;2.83;2.33;;;20.60;43.50;;;;;;4985218;28;20228;-82
2021/04/29 04:55:45;;;;;;;4.37;2.60;;;20.50;43.50;;;;;;4981074;28;20224;-81
2021/04/29 04:58:11;;;;;;;3.87;2.50;;;20.50;43.50;;;;;;4973263;28;20239;-81
2021/04/29 05:00:38;;;;;;;3.33;2.83;;;20.50;43.50;;;;;;4985452;28;20241;-82
2021/04/29 05:03:12;;;;;;;3.50;2.37;;;20.50;43.50;;;;;;4982995;28;20251;-85
2021/04/29 05:05:43;;;;;;;3.90;2.67;;;20.50;43.50;;;;;;4984735;28;21448;-82
2021/04/29 05:08:09;;;;;;;2.73;2.43;;;20.50;43.50;;;;;;4979743;28;20942;-85
2021/04/29 05:10:36;;;;;;;3.07;2.60;;;20.50;43.60;;;;;;4972325;28;20253;-87
2021/04/29 05:13:05;;;;;;;5.07;2.40;;;20.50;44.30;;;;;;4969629;28;20725;-86
2021/04/29 05:15:33;;;;;;;4.90;2.93;;;20.50;44.60;;;;;;4992916;28;20232;-82
2021/04/29 05:17:59;;;;;;;18.30;6.30;;;20.60;44.40;;;;;;4988708;28;20232;-84
2021/04/29 05:20:29;;;;;;;17.30;5.80;;;20.70;44.40;;;;;;4978615;28;20240;-80
2021/04/29 05:22:56;;;;;;;21.93;7.17;;;20.70;44.20;;;;;;4999087;28;20232;-81
2021/04/29 05:25:25;;;;;;;18.77;6.53;;;20.70;44.10;;;;;;4988564;28;20220;-81
2021/04/29 05:27:52;;;;;;;17.87;6.37;;;20.70;44.00;;;;;;4985798;28;20220;-84
2021/04/29 05:30:20;;;;;;;16.07;6.17;;;20.60;43.80;;;;;;4986352;28;20726;-88
2021/04/29 05:32:47;;;;;;;12.90;5.83;;;20.70;43.80;;;;;;4984299;28;20219;-87
2021/04/29 05:35:14;;;;;;;27.83;8.73;;;20.70;43.70;;;;;;4986542;28;20642;-83
2021/04/29 05:37:41;;;;;;;41.07;12.37;;;20.70;44.70;;;;;;4985047;28;20655;-85
2021/04/29 05:40:08;;;;;;;50.37;13.83;;;20.80;45.90;;;;;;4988163;28;20228;-84
2021/04/29 05:42:34;;;;;;;52.37;13.93;;;20.90;45.80;;;;;;4992807;28;20231;-85
2021/04/29 05:45:01;;;;;;;57.67;13.43;;;21.00;45.80;;;;;;4987399;28;20707;-88
2021/04/29 05:47:27;;;;;;;31.97;10.80;;;21.10;45.30;;;;;;4987758;28;20755;-85
2021/04/29 05:49:54;;;;;;;14.40;5.97;;;21.00;43.00;;;;;;4987832;28;20224;-85
2021/04/29 05:52:22;;;;;;;14.30;5.27;;;20.80;41.40;;;;;;4988545;28;20220;-84
2021/04/29 05:54:48;;;;;;;7.50;5.47;;;20.70;41.10;;;;;;4983586;28;20413;-84
2021/04/29 05:57:14;;;;;;;11.67;7.27;;;20.70;40.90;;;;;;5000670;28;20239;-84
2021/04/29 05:59:40;;;;;;;9.87;6.60;;;20.60;41.10;;;;;;4995768;28;20223;-84
2021/04/29 06:02:07;;;;;;;9.93;7.20;;;20.60;40.60;;;;;;4989592;28;21269;-84
2021/04/29 06:04:41;;;;;;;9.43;7.37;;;20.60;40.50;;;;;;4986971;28;20589;-84
2021/04/29 06:07:09;;;;;;;7.63;6.50;;;20.60;40.30;;;;;;4987611;28;20356;-84
2021/04/29 06:09:35;;;;;;;10.17;7.60;;;20.50;40.60;;;;;;4986632;28;20227;-85
2021/04/29 06:12:02;;;;;;;10.37;7.27;;;20.50;40.50;;;;;;4989188;28;20235;-85
2021/04/29 06:14:28;;;;;;;10.30;7.60;;;20.60;40.40;;;;;;4997872;28;20590;-85
2021/04/29 06:16:55;;;;;;;10.30;7.00;;;20.50;40.80;;;;;;4990763;28;20239;-84
2021/04/29 06:19:22;;;;;;;7.83;7.03;;;20.50;40.60;;;;;;4992474;28;20224;-84
2021/04/29 06:21:48;;;;;;;10.47;7.63;;;20.50;40.80;;;;;;4986768;28;20631;-84
2021/04/29 06:24:14;;;;;;;11.63;7.47;;;20.50;40.60;;;;;;4994906;28;20230;-86
2021/04/29 06:26:41;;;;;;;9.70;7.13;;;20.50;40.60;;;;;;4992190;28;20231;-90
2021/04/29 06:29:08;;;;;;;10.43;7.63;;;20.50;40.80;;;;;;4992478;28;20231;-86
2021/04/29 06:31:37;;;;;;;9.30;7.60;;;20.50;40.80;;;;;;4990583;28;20231;-83
2021/04/29 06:34:06;;;;;;;12.87;8.07;;;20.50;41.00;;;;;;4991670;28;20235;-82
2021/04/29 06:36:33;;;;;;;9.90;7.80;;;20.40;41.40;;;;;;4988766;28;20236;-90
2021/04/29 06:38:59;;;;;;;8.87;7.57;;;20.50;41.50;;;;;;4999963;28;20227;-84
2021/04/29 06:41:25;;;;;;;9.80;7.70;;;20.50;42.60;;;;;;4991712;28;20584;-86
2021/04/29 06:43:52;;;;;;;10.77;8.37;;;20.60;42.70;;;;;;4996320;28;20217;-87
2021/04/29 06:46:18;;;;;;;9.07;7.93;;;20.60;41.90;;;;;;4986698;28;20225;-89
2021/04/29 06:48:45;;;;;;;10.10;8.63;;;20.60;41.60;;;;;;4998466;28;20236;-87
2021/04/29 06:51:11;;;;;;;9.47;8.07;;;20.60;41.90;;;;;;4990473;28;20216;-86
2021/04/29 06:53:58;;;;;;;9.43;7.20;;;20.70;42.20;;;;;;4985054;28;20797;-86
2021/04/29 06:56:24;;;;;;;9.73;7.63;;;20.80;41.60;;;;;;4986749;28;20278;-86
2021/04/29 06:59:02;;;;;;;9.33;7.37;;;20.70;41.50;;;;;;4998630;28;20340;-91
2021/04/29 07:01:28;;;;;;;13.30;8.70;;;20.80;41.60;;;;;;4988601;28;20235;-88
2021/04/29 07:03:56;;;;;;;9.00;8.10;;;20.60;41.70;;;;;;4998224;28;21072;-91
2021/04/29 07:06:23;;;;;;;9.73;8.47;;;20.60;42.80;;;;;;4988893;28;20237;-91
2021/04/29 07:08:55;;;;;;;11.57;8.73;;;20.60;44.70;;;;;;5000137;28;20239;-91
2021/04/29 07:11:23;;;;;;;9.77;8.73;;;20.60;42.90;;;;;;4992491;28;20631;-91
2021/04/29 07:13:49;;;;;;;13.50;9.10;;;20.50;42.00;;;;;;5005550;28;20343;-90
2021/04/29 07:16:15;;;;;;;12.43;9.87;;;20.40;41.80;;;;;;4992508;28;20285;-90
2021/04/29 07:18:42;;;;;;;12.10;9.77;;;20.40;41.80;;;;;;4988564;28;20352;-90
2021/04/29 07:21:08;;;;;;;14.10;10.27;;;20.40;41.90;;;;;;4985319;28;20236;-91
2021/04/29 07:23:34;;;;;;;13.53;10.07;;;20.40;41.90;;;;;;4997056;28;20228;-92
2021/04/29 07:26:02;;;;;;;14.87;10.77;;;20.30;41.90;;;;;;5007460;28;20239;-91
2021/04/29 07:28:29;;;;;;;12.63;10.37;;;20.30;42.00;;;;;;4984896;28;20232;-90
2021/04/29 07:30:55;;;;;;;11.83;9.30;;;20.30;42.10;;;;;;4983456;28;20609;-90
2021/04/29 07:33:21;;;;;;;11.90;8.63;;;20.30;42.00;;;;;;4985538;28;20588;-89
2021/04/29 07:35:48;;;;;;;12.10;9.47;;;20.40;42.10;;;;;;4985072;28;20242;-90
2021/04/29 07:38:15;;;;;;;11.97;9.50;;;20.30;42.00;;;;;;4983948;28;20626;-89
2021/04/29 07:40:41;;;;;;;11.93;8.83;;;20.30;41.80;;;;;;4988210;28;20224;-88
2021/04/29 07:43:08;;;;;;;9.83;8.83;;;20.40;41.90;;;;;;4988030;28;20255;-87
2021/04/29 07:45:37;;;;;;;11.13;9.50;;;20.40;41.70;;;;;;4988314;28;20623;-87
2021/04/29 07:48:06;;;;;;;16.10;11.13;;;20.40;41.70;;;;;;4990134;28;20247;-89
2021/04/29 07:50:32;;;;;;;11.57;10.13;;;20.30;41.80;;;;;;4992001;28;20239;-88
2021/04/29 07:53:00;;;;;;;15.17;10.43;;;20.20;42.20;;;;;;4992254;28;20224;-90
2021/04/29 07:55:31;;;;;;;14.77;9.80;;;20.20;43.00;;;;;;4978993;28;20224;-89
2021/04/29 07:57:57;;;;;;;10.93;9.80;;;20.30;43.10;;;;;;4981323;28;20620;-93
2021/04/29 08:00:28;;;;;;;31.60;14.00;;;20.30;43.30;;;;;;4995635;28;20219;-88
2021/04/29 08:02:54;;;;;;;30.10;13.53;;;20.30;44.60;;;;;;4987944;28;20783;-86
2021/04/29 08:05:20;;;;;;;29.13;12.63;;;20.40;44.40;;;;;;4991259;28;20614;-85
2021/04/29 08:07:47;;;;;;;33.37;12.23;;;20.50;44.20;;;;;;4994258;28;20223;-86
2021/04/29 08:10:14;;;;;;;20.93;11.50;;;20.60;43.80;;;;;;4982007;28;20607;-90
2021/04/29 08:12:41;;;;;;;16.77;10.40;;;20.70;43.90;;;;;;4992871;28;20246;-87
2021/04/29 08:15:07;;;;;;;16.43;10.50;;;20.70;43.90;;;;;;4987389;28;20429;-86
2021/04/29 08:17:34;;;;;;;13.13;10.27;;;20.90;43.70;;;;;;4987417;28;20251;-85
2021/04/29 08:20:01;;;;;;;14.47;9.83;;;21.00;43.20;;;;;;4989892;28;20239;-86
2021/04/29 08:22:28;;;;;;;13.17;9.50;;;21.00;43.20;;;;;;4984003;28;20243;-86
2021/04/29 08:24:56;;;;;;;15.87;9.10;;;21.10;43.00;;;;;;4986888;28;20235;-86
2021/04/29 08:27:26;;;;;;;13.97;9.10;;;21.00;42.40;;;;;;4993228;28;20251;-87
2021/04/29 08:30:00;;;;;;;10.83;8.57;;;21.00;42.20;;;;;;4982973;28;20230;-89
2021/04/29 08:32:26;;;;;;;14.97;8.87;;;21.10;42.30;;;;;;4998067;28;20228;-83
2021/04/29 08:34:53;;;;;;;9.57;8.53;;;21.20;42.30;;;;;;4983111;28;20223;-88
2021/04/29 08:37:19;;;;;;;13.63;9.60;;;21.20;42.30;;;;;;4992929;28;20483;-84
2021/04/29 08:39:46;;;;;;;19.23;9.50;;;21.20;42.10;;;;;;4986138;28;20580;-82
2021/04/29 08:42:14;;;;;;;15.87;9.47;;;21.20;42.30;;;;;;4990705;28;20234;-82
2021/04/29 08:44:41;;;;;;;11.23;9.30;;;21.30;41.90;;;;;;4987108;28;20223;-80
2021/04/29 08:47:17;;;;;;;11.70;10.53;;;21.30;41.70;;;;;;4984110;28;20254;-85
2021/04/29 08:49:43;;;;;;;14.70;10.07;;;21.30;42.10;;;;;;4983201;28;20662;-86
2021/04/29 08:52:10;;;;;;;14.90;10.20;;;21.30;41.70;;;;;;4992367;28;20223;-85
2021/04/29 08:54:38;;;;;;;10.63;9.33;;;21.40;42.00;;;;;;4980752;28;20744;-84
2021/04/29 08:57:05;;;;;;;11.87;9.40;;;21.40;41.80;;;;;;5005086;28;20228;-88
2021/04/29 08:59:33;;;;;;;10.40;9.30;;;21.50;41.80;;;;;;4992078;28;20266;-87
2021/04/29 09:02:00;;;;;;;12.33;8.93;;;21.50;41.90;;;;;;4992535;28;20279;-91
2021/04/29 09:04:41;;;;;;;11.20;8.50;;;21.50;42.10;;;;;;4984516;28;20244;-90
2021/04/29 09:07:12;;;;;;;11.20;9.30;;;21.60;42.20;;;;;;4987742;28;20399;-87
2021/04/29 09:09:44;;;;;;;10.73;9.63;;;21.50;41.90;;;;;;4982872;28;20363;-89
2021/04/29 09:12:11;;;;;;;10.57;9.47;;;21.50;41.90;;;;;;4986417;28;20308;-85
2021/04/29 09:14:42;;;;;;;10.53;9.43;;;21.60;42.00;;;;;;4985800;28;20224;-86
2021/04/29 09:17:10;;;;;;;11.70;9.53;;;21.60;42.70;;;;;;4980168;28;20794;-85
2021/04/29 09:19:56;;;;;;;13.97;12.53;;;21.70;42.20;;;;;;4985295;28;20232;-83
2021/04/29 09:22:23;;;;;;;13.53;11.63;;;21.60;41.80;;;;;;4970485;28;20684;-84
2021/04/29 09:24:50;;;;;;;12.83;11.30;;;21.60;41.90;;;;;;4978408;28;20243;-86
2021/04/29 09:27:21;;;;;;;11.53;10.33;;;21.60;42.20;;;;;;4992085;28;21001;-84
2021/04/29 09:29:58;;;;;;;11.67;10.40;;;21.60;41.90;;;;;;4989752;28;20909;-88
2021/04/29 09:32:32;;;;;;;14.07;11.43;;;21.70;42.00;;;;;;4987751;28;20392;-87
2021/04/29 09:35:00;;;;;;;12.00;9.73;;;21.70;42.40;;;;;;4984875;28;20350;-88
2021/04/29 09:37:30;;;;;;;14.00;11.90;;;21.70;41.90;;;;;;4987953;28;20598;-88
2021/04/29 09:40:04;;;;;;;13.57;12.17;;;21.70;41.70;;;;;;4992820;28;20231;-88
2021/04/29 09:42:35;;;;;;;12.97;11.53;;;21.60;41.80;;;;;;4982925;28;20271;-85
2021/04/29 09:45:03;;;;;;;14.53;11.00;;;21.60;41.90;;;;;;4984028;28;20236;-85
2021/04/29 09:47:30;;;;;;;12.03;10.73;;;21.60;41.90;;;;;;4985103;28;20216;-83
2021/04/29 09:49:57;;;;;;;14.70;11.10;;;21.60;41.90;;;;;;4979075;28;20239;-82
2021/04/29 09:52:26;;;;;;;17.70;10.70;;;21.50;42.70;;;;;;4979664;28;20227;-87
2021/04/29 09:54:53;;;;;;;11.77;10.57;;;21.50;42.10;;;;;;4974856;28;20220;-88
2021/04/29 09:57:38;;;;;;;11.50;10.40;;;21.60;41.90;;;;;;4975645;28;20262;-88
2021/04/29 10:00:11;;;;;;;10.77;9.77;;;21.50;41.70;;;;;;4981627;28;20228;-89
2021/04/29 10:02:46;;;;;;;11.00;9.63;;;21.50;41.90;;;;;;4963878;28;20315;-85
2021/04/29 10:05:12;;;;;;;9.77;8.87;;;21.50;42.10;;;;;;4988258;28;21574;-84
2021/04/29 10:07:38;;;;;;;9.27;7.93;;;21.50;42.10;;;;;;4987064;28;20228;-84
2021/04/29 10:10:05;;;;;;;9.10;8.03;;;21.50;41.60;;;;;;4971918;28;20232;-83
2021/04/29 10:12:32;;;;;;;7.00;6.30;;;21.50;41.30;;;;;;4975763;28;22162;-86
2021/04/29 10:15:00;;;;;;;7.17;6.43;;;21.50;41.50;;;;;;4978323;28;20337;-86
2021/04/29 10:17:37;;;;;;;;;;;;;;;;;;;;;
2021/04/29 10:20:06;;;;;;;7.40;5.43;;;21.60;41.50;;;;;;4979995;28;20303;-87
2021/04/29 10:22:50;;;;;;;7.20;5.30;;;21.60;41.50;;;;;;4962262;28;20223;-87
2021/04/29 10:25:37;;;;;;;5.47;4.97;;;21.60;41.60;;;;;;4929615;28;20619;-86
2021/04/29 10:28:05;;;;;;;5.83;4.97;;;21.50;41.60;;;;;;4977933;28;20616;-86
2021/04/29 10:30:36;;;;;;;5.53;5.03;;;21.60;41.70;;;;;;4954084;28;20244;-86
2021/04/29 10:33:20;;;;;;;4.33;3.90;;;21.50;41.60;;;;;;4954766;28;20253;-86
2021/04/29 10:36:12;;;;;;;4.47;4.07;;;21.50;41.70;;;;;;4950484;28;20708;-86
2021/04/29 10:38:40;;;;;;;4.80;4.07;;;21.50;41.80;;;;;;4962646;28;20247;-86
2021/04/29 10:41:24;;;;;;;4.97;3.57;;;21.50;41.90;;;;;;4961394;28;20260;-86
2021/04/29 10:44:07;;;;;;;4.43;3.63;;;21.50;41.90;;;;;;4950983;28;20228;-87
2021/04/29 10:46:39;;;;;;;3.63;3.20;;;21.50;42.00;;;;;;4979790;28;20716;-86
2021/04/29 10:49:25;;;;;;;;;;;;;;;;;;;;;
2021/04/29 10:51:52;;;;;;;3.17;2.90;;;21.40;41.90;;;;;;4979834;28;21580;-92
2021/04/29 10:54:23;;;;;;;5.13;2.80;;;21.40;42.00;;;;;;4949008;28;20232;-84
2021/04/29 10:57:13;;;;;;;4.10;2.90;;;21.40;43.10;;;;;;4973674;28;20228;-85
2021/04/29 10:59:46;;;;;;;5.20;2.80;;;21.50;43.50;;;;;;4977378;28;20904;-86
2021/04/29 11:02:39;;;;;;;7.37;3.03;;;21.60;44.00;;;;;;4983738;28;20220;-87
2021/04/29 11:05:20;;;;;;;2.90;2.47;;;21.70;44.00;;;;;;4985838;28;20232;-88
2021/04/29 11:07:47;;;;;;;3.27;2.77;;;21.80;44.10;;;;;;4983616;28;21232;-89
2021/04/29 11:10:15;;;;;;;4.50;3.30;;;21.90;44.40;;;;;;4996752;28;20240;-87
2021/04/29 11:13:07;;;;;;;;;;;;;;;;;;;;;
2021/04/29 11:15:39;;;;;;;5.43;2.50;;;22.00;44.30;;;;;;4972316;28;20232;-87
2021/04/29 11:18:06;;;;;;;3.73;2.83;;;22.10;44.00;;;;;;4978216;28;20221;-89
2021/04/29 11:20:49;;;;;;;2.70;2.50;;;22.10;43.90;;;;;;4963910;28;20304;-88
2021/04/29 11:23:41;;;;;;;3.60;2.50;;;22.10;43.70;;;;;;4984480;28;20330;-89
2021/04/29 11:26:19;;;;;;;3.90;2.23;;;22.20;43.60;;;;;;4969503;28;20560;-89
2021/04/29 11:28:47;;;;;;;2.87;2.50;;;22.20;43.50;;;;;;4981953;28;20232;-88
2021/04/29 11:31:13;;;;;;;4.53;2.47;;;22.30;43.60;;;;;;4973311;28;20731;-85
2021/04/29 11:33:47;;;;;;;4.03;2.50;;;22.40;43.50;;;;;;4982177;28;20409;-85
2021/04/29 11:36:33;;;;;;;2.17;1.97;;;22.40;43.20;;;;;;4978184;28;20696;-86
2021/04/29 11:39:04;;;;;;;3.53;2.60;;;22.50;43.30;;;;;;4983793;28;20670;-87
2021/04/29 11:41:31;;;;;;;3.67;2.17;;;22.50;43.00;;;;;;4982522;28;20216;-86
2021/04/29 11:44:04;;;;;;;4.30;2.53;;;22.50;43.30;;;;;;4987514;28;20228;-85
2021/04/29 11:46:31;;;;;;;2.20;2.00;;;22.50;43.40;;;;;;4979520;28;20723;-86
2021/04/29 11:49:04;;;;;;;2.30;2.10;;;22.50;43.30;;;;;;4983024;28;20234;-85
2021/04/29 11:51:33;;;;;;;2.60;2.40;;;22.60;43.30;;;;;;4981804;28;20220;-86
2021/04/29 11:54:07;;;;;;;2.53;2.30;;;22.60;43.00;;;;;;4981977;28;20736;-86
2021/04/29 11:56:41;;;;;;;2.77;2.30;;;22.60;43.00;;;;;;4983200;28;20219;-84
2021/04/29 11:59:08;;;;;;;1.93;1.83;;;22.60;43.10;;;;;;4982934;28;20471;-87
2021/04/29 12:01:36;;;;;;;3.33;2.00;;;22.60;43.10;;;;;;4985650;28;20231;-86
2021/04/29 12:04:19;;;;;;;2.00;1.80;;;22.70;43.10;;;;;;4977755;28;20535;-88
2021/04/29 12:06:55;;;;;;;2.10;1.90;;;22.70;42.90;;;;;;4970938;28;20258;-87
2021/04/29 12:09:23;;;;;;;3.27;2.30;;;22.80;42.90;;;;;;4982114;28;20219;-85
2021/04/29 12:12:15;;;;;;;4.27;1.97;;;22.80;42.90;;;;;;4987341;28;20212;-87
2021/04/29 12:14:54;;;;;;;1.90;1.80;;;22.80;42.80;;;;;;4981105;28;20337;-85
2021/04/29 12:17:22;;;;;;;2.00;1.80;;;22.80;42.90;;;;;;4975336;28;20475;-89
2021/04/29 12:19:55;;;;;;;2.27;1.83;;;22.90;43.10;;;;;;4997663;28;20319;-90
2021/04/29 12:22:25;;;;;;;2.43;1.90;;;22.90;43.20;;;;;;4978697;28;20228;-88
2021/04/29 12:24:52;;;;;;;1.63;1.53;;;22.90;43.10;;;;;;4981395;28;20220;-86
2021/04/29 12:27:21;;;;;;;5.17;1.83;;;23.00;42.80;;;;;;4982875;28;20363;-90
2021/04/29 12:30:08;;;;;;;1.97;1.80;;;23.00;43.10;;;;;;4966738;28;20224;-87
2021/04/29 12:32:45;;;;;;;2.20;1.80;;;23.00;42.90;;;;;;4983413;28;20220;-84
2021/04/29 12:35:25;;;;;;;3.17;1.97;;;23.00;43.00;;;;;;4984159;28;20219;-86
2021/04/29 12:37:55;;;;;;;5.23;1.50;;;23.20;42.30;;;;;;4982663;28;20258;-86
2021/04/29 12:40:33;;;;;;;1.97;1.80;;;23.90;41.20;;;;;;4993414;28;20572;-88
2021/04/29 12:43:21;;;;;;;3.63;1.80;;;24.50;39.90;;;;;;4969372;28;20231;-84
2021/04/29 12:45:52;;;;;;;2.13;1.93;;;24.90;39.70;;;;;;4970454;28;20902;-85
2021/04/29 12:48:34;;;;;;;1.60;1.50;;;25.00;39.00;;;;;;4978939;28;20240;-85
2021/04/29 12:51:08;;;;;;;1.50;1.27;;;25.20;39.50;;;;;;4977503;28;20224;-86
2021/04/29 12:53:36;;;;;;;1.87;1.47;;;25.30;39.70;;;;;;4980444;28;20706;-85
2021/04/29 12:56:07;;;;;;;4.30;1.80;;;25.40;38.80;;;;;;4982593;28;20487;-88
2021/04/29 12:58:36;;;;;;;2.17;1.97;;;25.50;38.60;;;;;;4994320;28;20232;-88